createdAt,value
2022-11-05T00:00:30.622Z,9.87
2022-11-05T00:03:15.966Z,10.07
2022-11-05T00:06:02.345Z,9.63
2022-11-05T00:08:48.940Z,10.17
2022-11-05T00:11:18.401Z,9.83
2022-11-05T00:14:03.836Z,10.37
2022-11-05T00:16:46.718Z,10.10
2022-11-05T00:19:14.929Z,9.77
2022-11-05T00:22:00.514Z,9.30
2022-11-05T00:24:47.550Z,9.93
2022-11-05T00:27:15.407Z,8.20
2022-11-05T00:29:43.286Z,9.37
2022-11-05T00:32:11.249Z,8.20
2022-11-05T00:34:39.099Z,8.03
2022-11-05T00:37:06.923Z,8.40
2022-11-05T00:39:36.246Z,8.47
2022-11-05T00:42:21.748Z,7.80
2022-11-05T00:45:04.915Z,7.80
2022-11-05T00:47:51.382Z,8.13
2022-11-05T00:50:21.043Z,8.47
2022-11-05T00:52:59.270Z,8.17
2022-11-05T00:55:33.261Z,8.53
2022-11-05T00:58:01.806Z,7.57
2022-11-05T01:00:31.579Z,8.87
2022-11-05T01:03:00.897Z,7.90
2022-11-05T01:05:29.664Z,8.10
2022-11-05T01:07:57.932Z,7.50
2022-11-05T01:10:26.349Z,7.23
2022-11-05T01:12:58.061Z,6.93
2022-11-05T01:15:25.921Z,7.27
2022-11-05T01:17:54.024Z,7.33
2022-11-05T01:20:22.128Z,6.43
2022-11-05T01:22:50.011Z,6.97
2022-11-05T01:25:20.830Z,7.03
2022-11-05T01:27:48.673Z,7.17
2022-11-05T01:30:18.205Z,6.80
2022-11-05T01:32:46.069Z,7.50
2022-11-05T01:35:16.661Z,6.77
2022-11-05T01:37:45.167Z,6.57
2022-11-05T01:40:14.940Z,6.93
2022-11-05T01:42:42.895Z,7.30
2022-11-05T01:45:14.912Z,6.90
2022-11-05T01:47:54.419Z,6.60
2022-11-05T01:50:34.423Z,6.90
2022-11-05T01:53:06.863Z,7.27
2022-11-05T01:55:39.247Z,7.53
2022-11-05T01:58:10.475Z,7.50
2022-11-05T02:00:39.854Z,7.37
2022-11-05T02:03:10.123Z,7.60
2022-11-05T02:05:40.135Z,6.67
2022-11-05T02:08:11.075Z,7.53
2022-11-05T02:10:39.045Z,7.47
2022-11-05T02:13:06.983Z,6.93
2022-11-05T02:15:45.936Z,7.50
2022-11-05T02:18:27.484Z,8.00
2022-11-05T02:21:07.980Z,8.10
2022-11-05T02:24:01.434Z,7.47
2022-11-05T02:27:00.225Z,7.33
2022-11-05T02:30:04.898Z,6.83
2022-11-05T02:32:44.527Z,7.37
2022-11-05T02:35:19.685Z,6.53
2022-11-05T02:37:52.835Z,8.30
2022-11-05T02:40:27.924Z,7.40
2022-11-05T02:43:02.386Z,7.60
2022-11-05T02:45:41.419Z,8.10
2022-11-05T02:48:15.166Z,7.97
2022-11-05T02:50:53.943Z,7.80
2022-11-05T02:53:30.072Z,8.27
2022-11-05T02:56:01.005Z,7.03
2022-11-05T02:58:30.500Z,7.23
2022-11-05T03:01:00.304Z,7.20
2022-11-05T03:03:35.081Z,7.07
2022-11-05T03:06:51.822Z,7.30
2022-11-05T03:09:54.769Z,7.13
2022-11-05T03:12:32.022Z,8.00
2022-11-05T03:15:09.864Z,7.90
2022-11-05T03:17:45.053Z,7.90
2022-11-05T03:20:20.380Z,7.73
2022-11-05T03:22:53.580Z,7.93
2022-11-05T03:25:23.839Z,7.93
2022-11-05T03:27:58.098Z,7.67
2022-11-05T03:30:26.868Z,9.00
2022-11-05T03:32:59.279Z,8.60
2022-11-05T03:35:31.652Z,8.97
2022-11-05T03:38:03.722Z,8.23
2022-11-05T03:40:36.287Z,7.57
2022-11-05T03:43:09.254Z,8.80
2022-11-05T03:45:42.995Z,8.33
2022-11-05T03:48:13.637Z,7.80
2022-11-05T03:50:47.381Z,8.00
2022-11-05T03:53:17.754Z,9.27
2022-11-05T03:55:59.343Z,8.77
2022-11-05T03:58:28.216Z,8.13
2022-11-05T04:00:56.211Z,7.70
2022-11-05T04:03:24.095Z,8.67
2022-11-05T04:06:10.261Z,8.33
2022-11-05T04:08:55.445Z,8.67
2022-11-05T04:11:40.934Z,8.37
2022-11-05T04:14:08.839Z,7.70
2022-11-05T04:16:54.409Z,8.17
2022-11-05T04:19:36.209Z,7.53
2022-11-05T04:22:22.758Z,7.13
2022-11-05T04:24:50.588Z,8.37
2022-11-05T04:27:18.752Z,8.37
2022-11-05T04:30:04.348Z,7.70
2022-11-05T04:32:32.266Z,8.07
2022-11-05T04:35:00.209Z,8.03
2022-11-05T04:37:29.421Z,8.03
2022-11-05T04:39:57.253Z,7.70
2022-11-05T04:42:25.085Z,8.60
2022-11-05T04:44:52.939Z,8.03
2022-11-05T04:47:20.917Z,8.00
2022-11-05T04:49:48.852Z,7.73
2022-11-05T04:52:17.919Z,7.77
2022-11-05T04:54:47.149Z,7.17
2022-11-05T04:57:15.085Z,6.57
2022-11-05T04:59:42.982Z,8.30
2022-11-05T05:02:10.937Z,7.17
2022-11-05T05:04:38.977Z,7.87
2022-11-05T05:07:06.856Z,7.97
2022-11-05T05:09:34.732Z,7.80
2022-11-05T05:12:04.084Z,7.23
2022-11-05T05:14:32.026Z,7.87
2022-11-05T05:16:59.984Z,7.57
2022-11-05T05:19:28.080Z,8.07
2022-11-05T05:21:54.911Z,8.07
2022-11-05T05:24:24.923Z,7.60
2022-11-05T05:26:53.102Z,8.13
2022-11-05T05:29:24.678Z,7.50
2022-11-05T05:31:52.530Z,7.43
2022-11-05T05:34:20.408Z,7.17
2022-11-05T05:36:48.245Z,8.17
2022-11-05T05:39:16.235Z,7.70
2022-11-05T05:41:44.105Z,8.07
2022-11-05T05:44:12.027Z,7.70
2022-11-05T05:46:41.253Z,7.00
2022-11-05T05:49:12.572Z,7.67
2022-11-05T05:51:40.959Z,8.00
2022-11-05T05:54:08.942Z,7.17
2022-11-05T05:56:36.811Z,7.27
2022-11-05T05:59:07.133Z,7.83
2022-11-05T06:01:35.132Z,7.27
2022-11-05T06:04:04.510Z,7.73
2022-11-05T06:06:32.455Z,7.73
2022-11-05T06:09:00.392Z,7.80
2022-11-05T06:11:28.497Z,8.10
2022-11-05T06:13:56.588Z,8.57
2022-11-05T06:16:24.489Z,8.37
2022-11-05T06:18:52.799Z,8.80
2022-11-05T06:21:22.138Z,9.00
2022-11-05T06:23:50.109Z,8.20
2022-11-05T06:26:20.037Z,8.67
2022-11-05T06:28:48.305Z,9.03
2022-11-05T06:31:16.617Z,8.30
2022-11-05T06:33:44.540Z,8.60
2022-11-05T06:36:15.977Z,7.87
2022-11-05T06:38:45.325Z,7.43
2022-11-05T06:41:13.198Z,8.33
2022-11-05T06:43:41.091Z,9.13
2022-11-05T06:46:09.404Z,8.20
2022-11-05T06:48:37.303Z,9.00
2022-11-05T06:51:06.841Z,8.17
2022-11-05T06:53:35.384Z,9.30
2022-11-05T06:56:05.509Z,8.50
2022-11-05T06:58:34.301Z,8.33
2022-11-05T07:01:03.194Z,9.20
2022-11-05T07:03:31.241Z,8.37
2022-11-05T07:06:00.858Z,8.17
2022-11-05T07:08:31.159Z,9.00
2022-11-05T07:10:59.303Z,8.40
2022-11-05T07:13:28.542Z,8.23
2022-11-05T07:15:56.779Z,7.63
2022-11-05T07:18:25.007Z,8.10
2022-11-05T07:20:52.913Z,9.10
2022-11-05T07:23:20.792Z,8.17
2022-11-05T07:25:48.665Z,7.90
2022-11-05T07:28:16.524Z,8.37
2022-11-05T07:30:45.690Z,8.73
2022-11-05T07:33:14.078Z,8.90
2022-11-05T07:35:42.194Z,8.33
2022-11-05T07:38:10.286Z,8.13
2022-11-05T07:40:38.388Z,8.63
2022-11-05T07:43:06.280Z,8.97
2022-11-05T07:45:34.340Z,8.23
2022-11-05T07:48:04.975Z,8.67
2022-11-05T07:50:35.302Z,7.87
2022-11-05T07:53:04.839Z,8.93
2022-11-05T07:55:33.376Z,7.80
2022-11-05T07:58:01.238Z,7.43
2022-11-05T08:00:29.873Z,7.63
2022-11-05T08:03:06.747Z,7.70
2022-11-05T08:05:39.341Z,7.47
2022-11-05T08:08:08.657Z,7.33
2022-11-05T08:10:37.650Z,7.53
2022-11-05T08:13:09.398Z,6.83
2022-11-05T08:15:38.062Z,7.07
2022-11-05T08:18:07.796Z,7.37
2022-11-05T08:20:38.500Z,6.77
2022-11-05T08:23:06.628Z,6.57
2022-11-05T08:25:34.918Z,7.50
2022-11-05T08:28:05.266Z,7.27
2022-11-05T08:30:33.940Z,6.63
2022-11-05T08:33:04.203Z,6.93
2022-11-05T08:35:32.400Z,7.07
2022-11-05T08:38:04.173Z,6.63
2022-11-05T08:40:33.808Z,6.70
2022-11-05T08:43:03.563Z,6.27
2022-11-05T08:45:31.845Z,6.53
2022-11-05T08:48:01.018Z,6.70
2022-11-05T08:50:29.506Z,6.97
2022-11-05T08:52:57.659Z,7.10
2022-11-05T08:55:27.391Z,6.70
2022-11-05T08:57:58.658Z,7.37
2022-11-05T09:00:27.543Z,6.50
2022-11-05T09:02:55.402Z,6.30
2022-11-05T09:05:23.508Z,5.47
2022-11-05T09:07:53.144Z,5.90
2022-11-05T09:10:25.896Z,5.33
2022-11-05T09:12:53.777Z,5.20
2022-11-05T09:15:23.136Z,5.43
2022-11-05T09:17:51.196Z,4.93
2022-11-05T09:20:19.468Z,4.33
2022-11-05T09:22:47.381Z,4.20
2022-11-05T09:25:15.870Z,4.20
2022-11-05T09:27:45.419Z,3.90
2022-11-05T09:30:14.660Z,3.67
2022-11-05T09:32:42.866Z,3.03
2022-11-05T09:35:11.433Z,3.17
2022-11-05T09:37:39.937Z,3.37
2022-11-05T09:40:08.526Z,2.63
2022-11-05T09:42:40.830Z,2.83
2022-11-05T09:45:15.900Z,2.90
2022-11-05T09:47:47.040Z,2.77
2022-11-05T09:50:18.461Z,2.40
2022-11-05T09:52:46.456Z,2.27
2022-11-05T09:55:22.848Z,2.63
2022-11-05T09:57:55.713Z,2.80
2022-11-05T10:00:25.033Z,2.40
2022-11-05T10:02:56.381Z,2.70
2022-11-05T10:05:26.221Z,3.23
2022-11-05T10:07:58.445Z,2.43
2022-11-05T10:10:39.353Z,2.77
2022-11-05T10:13:16.681Z,2.57
2022-11-05T10:15:56.388Z,2.60
2022-11-05T10:18:29.673Z,2.13
2022-11-05T10:20:58.010Z,2.33
2022-11-05T10:23:27.498Z,2.13
2022-11-05T10:25:58.166Z,2.07
2022-11-05T10:28:30.705Z,2.57
2022-11-05T10:31:02.452Z,2.00
2022-11-05T10:33:34.520Z,2.30
2022-11-05T10:36:07.164Z,2.20
2022-11-05T10:38:35.215Z,2.03
2022-11-05T10:41:29.153Z,2.17
2022-11-05T10:44:03.877Z,2.00
2022-11-05T10:46:41.369Z,2.23
2022-11-05T10:49:26.017Z,1.93
2022-11-05T10:51:57.357Z,2.00
2022-11-05T10:54:30.715Z,1.80
2022-11-05T10:56:58.635Z,1.90
2022-11-05T10:59:28.438Z,1.67
2022-11-05T11:02:05.329Z,1.90
2022-11-05T11:04:37.687Z,1.97
2022-11-05T11:07:06.407Z,1.50
2022-11-05T11:09:37.184Z,2.03
2022-11-05T11:12:08.349Z,1.63
2022-11-05T11:14:36.213Z,1.83
2022-11-05T11:17:26.802Z,1.70
2022-11-05T11:20:20.375Z,1.60
2022-11-05T11:23:00.894Z,1.50
2022-11-05T11:25:31.210Z,1.50
2022-11-05T11:28:04.099Z,1.40
2022-11-05T11:30:33.718Z,1.37
2022-11-05T11:33:07.663Z,1.47
2022-11-05T11:35:39.359Z,1.17
2022-11-05T11:38:12.740Z,1.27
2022-11-05T11:40:40.699Z,1.00
2022-11-05T11:43:28.095Z,1.33
2022-11-05T11:46:03.805Z,1.60
2022-11-05T11:48:37.079Z,1.37
2022-11-05T11:51:18.428Z,1.43
2022-11-05T11:53:49.291Z,1.10
2022-11-05T11:56:20.022Z,1.10
2022-11-05T11:58:49.906Z,1.33
2022-11-05T12:01:47.569Z,1.30
2022-11-05T12:04:46.985Z,1.30
2022-11-05T12:07:31.618Z,1.27
2022-11-05T12:10:20.535Z,1.10
2022-11-05T12:12:57.942Z,1.03
2022-11-05T12:15:42.640Z,1.30
2022-11-05T12:18:15.615Z,1.20
2022-11-05T12:20:58.836Z,1.50
2022-11-05T12:24:00.974Z,1.43
2022-11-05T12:26:39.882Z,1.27
2022-11-05T12:29:36.081Z,1.30
2022-11-05T12:32:43.290Z,1.60
2022-11-05T12:35:22.812Z,1.47
2022-11-05T12:38:00.679Z,1.30
2022-11-05T12:40:43.670Z,1.20
2022-11-05T12:43:19.337Z,1.00
2022-11-05T12:45:55.425Z,1.10
2022-11-05T12:49:10.007Z,1.67
2022-11-05T12:51:52.251Z,1.40
2022-11-05T12:54:31.308Z,1.40
2022-11-05T12:57:03.292Z,1.30
2022-11-05T12:59:37.423Z,1.30
2022-11-05T13:02:14.480Z,1.27
2022-11-05T13:04:48.097Z,1.50
2022-11-05T13:07:21.892Z,1.70
2022-11-05T13:09:56.993Z,1.40
2022-11-05T13:12:28.496Z,1.40
2022-11-05T13:14:59.796Z,1.40
2022-11-05T13:17:33.972Z,1.40
2022-11-05T13:20:11.713Z,1.50
2022-11-05T13:22:47.646Z,1.37
2022-11-05T13:25:21.134Z,1.60
2022-11-05T13:27:59.288Z,1.20
2022-11-05T13:30:32.601Z,1.20
2022-11-05T13:33:04.883Z,1.33
2022-11-05T13:35:38.137Z,1.17
2022-11-05T13:38:27.797Z,1.40
2022-11-05T13:41:09.980Z,1.30
2022-11-05T13:43:55.800Z,1.50
2022-11-05T13:46:45.680Z,1.37
2022-11-05T13:49:39.420Z,1.70
2022-11-05T13:52:29.395Z,1.30
2022-11-05T13:55:17.280Z,1.40
2022-11-05T13:58:12.818Z,1.43
2022-11-05T14:00:47.415Z,1.47
2022-11-05T14:03:19.932Z,1.60
2022-11-05T14:05:55.480Z,1.47
2022-11-05T14:08:28.476Z,1.30
2022-11-05T14:11:03.935Z,1.20
2022-11-05T14:13:40.387Z,1.97
2022-11-05T14:16:10.032Z,1.77
2022-11-05T14:18:41.492Z,1.60
2022-11-05T14:21:45.396Z,1.77
2022-11-05T14:24:44.116Z,2.47
2022-11-05T14:27:46.018Z,2.47
2022-11-05T14:30:44.759Z,1.97
2022-11-05T14:33:33.132Z,1.93
2022-11-05T14:36:30.359Z,1.90
2022-11-05T14:39:12.722Z,1.80
2022-11-05T14:41:57.340Z,1.80
2022-11-05T14:44:26.063Z,1.93
2022-11-05T14:46:58.246Z,1.70
2022-11-05T14:49:28.773Z,1.80
2022-11-05T14:51:59.156Z,1.50
2022-11-05T14:54:30.428Z,1.73
2022-11-05T14:57:00.305Z,2.00
2022-11-05T15:00:04.759Z,1.57
2022-11-05T15:02:37.583Z,1.57
2022-11-05T15:05:37.078Z,1.50
2022-11-05T15:08:29.878Z,1.50
2022-11-05T15:11:08.186Z,1.70
2022-11-05T15:13:43.811Z,1.60
2022-11-05T15:16:17.256Z,1.50
2022-11-05T15:18:48.039Z,1.60
2022-11-05T15:21:19.074Z,1.80
2022-11-05T15:23:49.452Z,1.97
2022-11-05T15:26:24.851Z,1.50
2022-11-05T15:28:53.873Z,1.87
2022-11-05T15:31:27.520Z,1.77
2022-11-05T15:36:51.379Z,1.90
2022-11-05T15:39:30.788Z,2.17
2022-11-05T15:41:59.222Z,1.80
2022-11-05T15:44:29.808Z,2.10
2022-11-05T15:47:09.057Z,1.73
2022-11-05T15:49:37.483Z,1.60
2022-11-05T15:52:09.091Z,1.80
2022-11-05T15:54:39.104Z,1.60
2022-11-05T15:57:15.990Z,1.87
2022-11-05T15:59:48.044Z,1.70
2022-11-05T16:02:34.595Z,1.97
2022-11-05T16:05:06.723Z,2.23
2022-11-05T16:07:36.169Z,1.97
2022-11-05T16:10:10.054Z,1.90
2022-11-05T16:12:40.537Z,1.80
2022-11-05T16:15:21.121Z,2.13
2022-11-05T16:17:53.521Z,2.30
2022-11-05T16:20:28.789Z,1.97
2022-11-05T16:22:59.909Z,2.40
2022-11-05T16:25:31.712Z,2.40
2022-11-05T16:28:00.833Z,1.87
2022-11-05T16:30:29.320Z,2.00
2022-11-05T16:33:05.659Z,1.80
2022-11-05T16:35:33.666Z,2.20
2022-11-05T16:38:03.784Z,2.00
2022-11-05T16:40:31.688Z,2.07
2022-11-05T16:43:15.824Z,1.80
2022-11-05T16:45:43.747Z,2.23
2022-11-05T16:48:13.453Z,1.97
2022-11-05T16:50:42.309Z,1.90
2022-11-05T16:53:12.082Z,2.27
2022-11-05T16:55:42.374Z,1.97
2022-11-05T16:58:19.276Z,1.87
2022-11-05T17:00:47.417Z,1.90
2022-11-05T17:03:15.404Z,2.30
2022-11-05T17:05:43.481Z,2.40
2022-11-05T17:08:12.999Z,2.33
2022-11-05T17:10:41.162Z,2.83
2022-11-05T17:13:10.094Z,2.40
2022-11-05T17:15:37.951Z,2.43
2022-11-05T17:18:06.566Z,3.30
2022-11-05T17:20:40.764Z,3.57
2022-11-05T17:23:10.513Z,3.87
2022-11-05T17:25:40.716Z,3.13
2022-11-05T17:28:09.671Z,3.87
2022-11-05T17:30:40.378Z,3.40
2022-11-05T17:33:10.139Z,3.23
2022-11-05T17:35:39.758Z,6.80
2022-11-05T17:38:07.903Z,3.90
2022-11-05T17:40:36.654Z,3.50
2022-11-05T17:43:05.984Z,3.07
2022-11-05T17:45:33.901Z,3.40
2022-11-05T17:48:03.306Z,3.13
2022-11-05T17:50:31.281Z,3.20
2022-11-05T17:52:59.138Z,2.93
2022-11-05T17:55:27.052Z,3.20
2022-11-05T17:57:54.907Z,3.30
2022-11-05T18:00:25.479Z,3.63
2022-11-05T18:02:54.289Z,3.80
2022-11-05T18:05:23.596Z,3.80
2022-11-05T18:07:52.314Z,3.30
2022-11-05T18:10:20.341Z,3.90
2022-11-05T18:12:49.029Z,3.90
2022-11-05T18:15:18.022Z,4.30
2022-11-05T18:17:47.402Z,4.40
2022-11-05T18:20:19.641Z,4.30
2022-11-05T18:22:50.251Z,4.23
2022-11-05T18:25:18.729Z,4.17
2022-11-05T18:27:46.592Z,4.43
2022-11-05T18:30:17.975Z,4.33
2022-11-05T18:32:47.990Z,4.60
2022-11-05T18:35:15.916Z,4.90
2022-11-05T18:37:43.842Z,5.20
2022-11-05T18:40:13.241Z,4.63
2022-11-05T18:42:43.408Z,5.97
2022-11-05T18:45:12.500Z,4.73
2022-11-05T18:47:40.618Z,4.80
2022-11-05T18:50:11.182Z,5.27
2022-11-05T18:52:39.050Z,5.23
2022-11-05T18:55:08.203Z,5.27
2022-11-05T18:57:36.152Z,5.10
2022-11-05T19:00:05.569Z,4.97
2022-11-05T19:02:33.571Z,5.33
2022-11-05T19:07:50.905Z,5.20
2022-11-05T19:10:18.893Z,5.07
2022-11-05T19:12:46.856Z,5.13
2022-11-05T19:15:14.828Z,5.50
2022-11-05T19:17:42.941Z,4.93
2022-11-05T19:20:11.644Z,5.33
2022-11-05T19:22:39.557Z,4.77
2022-11-05T19:25:09.368Z,5.33
2022-11-05T19:27:38.588Z,5.80
2022-11-05T19:30:08.414Z,5.90
2022-11-05T19:32:36.295Z,5.83
2022-11-05T19:35:04.259Z,5.70
2022-11-05T19:37:32.198Z,5.17
2022-11-05T19:40:00.178Z,5.23
2022-11-05T19:42:29.504Z,5.53
2022-11-05T19:45:06.894Z,5.83
2022-11-05T19:47:44.860Z,5.73
2022-11-05T19:50:12.882Z,5.80
2022-11-05T19:52:41.371Z,5.53
2022-11-05T19:55:12.305Z,6.20
2022-11-05T19:57:41.785Z,6.30
2022-11-05T20:00:10.832Z,5.63
2022-11-05T20:02:38.807Z,6.43
2022-11-05T20:05:07.149Z,6.43
2022-11-05T20:07:35.000Z,6.63
2022-11-05T20:10:02.865Z,6.47
2022-11-05T20:12:30.723Z,6.63
2022-11-05T20:14:59.927Z,6.70
2022-11-05T20:17:28.014Z,6.03
2022-11-05T20:19:55.856Z,6.10
2022-11-05T20:22:24.161Z,5.60
2022-11-05T20:24:52.047Z,5.73
2022-11-05T20:27:19.916Z,5.97
2022-11-05T20:29:47.772Z,5.70
2022-11-05T20:32:17.027Z,5.43
2022-11-05T20:34:45.398Z,6.33
2022-11-05T20:37:13.533Z,5.73
2022-11-05T20:39:41.471Z,4.97
2022-11-05T20:42:09.458Z,5.00
2022-11-05T20:44:37.325Z,4.63
2022-11-05T20:47:06.253Z,5.13
2022-11-05T20:49:35.467Z,4.53
2022-11-05T20:52:03.421Z,4.90
2022-11-05T20:54:31.430Z,4.63
2022-11-05T20:56:59.334Z,4.47
2022-11-05T20:59:27.373Z,4.73
2022-11-05T21:01:55.351Z,4.87
2022-11-05T21:04:23.253Z,5.00
2022-11-05T21:06:53.297Z,4.70
2022-11-05T21:09:21.485Z,4.40
2022-11-05T21:12:07.210Z,4.57
2022-11-05T21:14:35.098Z,4.20
2022-11-05T21:17:03.243Z,4.20
2022-11-05T21:19:32.046Z,4.20
2022-11-05T21:22:01.438Z,4.53
2022-11-05T21:24:29.355Z,4.33
2022-11-05T21:26:57.214Z,3.73
2022-11-05T21:29:25.161Z,4.23
2022-11-05T21:31:53.371Z,4.00
2022-11-05T21:34:21.257Z,3.80
2022-11-05T21:36:50.323Z,3.60
2022-11-05T21:39:19.609Z,3.77
2022-11-05T21:41:47.462Z,3.87
2022-11-05T21:44:15.396Z,3.83
2022-11-05T21:46:43.262Z,3.77
2022-11-05T21:49:11.114Z,3.50
2022-11-05T21:51:56.490Z,3.60
2022-11-05T21:54:43.363Z,3.63
2022-11-05T21:57:32.886Z,3.57
2022-11-05T22:00:01.921Z,3.57
2022-11-05T22:02:30.537Z,3.73
2022-11-05T22:05:00.048Z,3.83
2022-11-05T22:07:30.138Z,3.70
2022-11-05T22:09:59.773Z,4.10
2022-11-05T22:12:28.130Z,4.30
2022-11-05T22:14:56.150Z,3.70
2022-11-05T22:17:24.562Z,3.60
2022-11-05T22:19:52.404Z,3.80
2022-11-05T22:22:20.307Z,4.20
2022-11-05T22:24:48.518Z,3.70
2022-11-05T22:27:20.530Z,3.67
2022-11-05T22:29:48.462Z,3.83
2022-11-05T22:32:16.839Z,3.70
2022-11-05T22:34:44.833Z,4.13
2022-11-05T22:37:13.847Z,3.97
2022-11-05T22:39:41.709Z,3.60
2022-11-05T22:42:09.947Z,3.63
2022-11-05T22:44:39.302Z,3.67
2022-11-05T22:47:07.589Z,4.20
2022-11-05T22:49:35.589Z,3.40
2022-11-05T22:52:03.518Z,3.43
2022-11-05T22:54:36.371Z,3.07
2022-11-05T22:57:06.954Z,3.30
2022-11-05T22:59:34.805Z,2.90
2022-11-05T23:02:09.167Z,3.77
2022-11-05T23:04:38.271Z,3.00
2022-11-05T23:07:27.685Z,3.27
2022-11-05T23:10:14.237Z,2.87
2022-11-05T23:12:44.302Z,3.20
2022-11-05T23:15:33.253Z,3.10
2022-11-05T23:18:20.104Z,2.67
2022-11-05T23:21:05.556Z,2.93
2022-11-05T23:23:51.133Z,2.60
2022-11-05T23:26:36.467Z,2.47
2022-11-05T23:29:04.421Z,2.70
2022-11-05T23:31:49.945Z,2.97
2022-11-05T23:34:21.184Z,2.50
2022-11-05T23:37:06.749Z,3.27
2022-11-05T23:39:39.674Z,3.20
2022-11-05T23:42:27.780Z,3.50
2022-11-05T23:45:14.806Z,4.03
2022-11-05T23:48:01.004Z,4.13
2022-11-05T23:50:34.333Z,3.50
2022-11-05T23:53:06.452Z,3.70
2022-11-05T23:55:34.439Z,3.53
2022-11-05T23:58:02.580Z,3.90
